Time;durP1;ratioP1;P1;durP2;ratioP2;P2;SDS_P1;SDS_P2;PMS_P1;PMS_P2;Temp;Humidity;BMP_temperature;BMP_pressure;BME280_temperature;BME280_humidity;BME280_pressure;Samples;Min_cycle;Max_cycle;Signal;HPM_P1;HPM_P2
2021/12/28 00:00:41;0.00;0.00;0.62;0.00;0.00;0.62;1.90;1.50;;;19.80;26.50;;;;;;2265446;61;20582;-58
2021/12/28 00:03:25;0.00;0.00;0.62;0.00;0.00;0.62;1.97;1.30;;;19.80;26.50;;;;;;2266139;61;20388;-57
2021/12/28 00:06:16;0.00;0.00;0.62;0.00;0.00;0.62;2.30;1.60;;;19.80;26.50;;;;;;2265930;61;20412;-57
2021/12/28 00:09:00;0.00;0.00;0.62;0.00;0.00;0.62;1.70;1.20;;;19.80;26.50;;;;;;2266064;61;20368;-56
2021/12/28 00:11:47;0.00;0.00;0.62;0.00;0.00;0.62;2.30;1.00;;;19.80;26.50;;;;;;2265813;61;20460;-58
2021/12/28 00:14:36;0.00;0.00;0.62;0.00;0.00;0.62;1.90;1.20;;;19.80;26.50;;;;;;2266455;61;20368;-59
2021/12/28 00:20:25;0.00;0.00;0.62;0.00;0.00;0.62;2.23;1.10;;;19.80;26.50;;;;;;2266035;61;20388;-59
2021/12/28 00:23:17;0.00;0.00;0.62;0.00;0.00;0.62;1.63;1.00;;;19.80;26.50;;;;;;2265967;61;20364;-58
2021/12/28 00:26:01;0.00;0.00;0.62;0.00;0.00;0.62;2.00;1.30;;;19.80;26.50;;;;;;2266119;61;20652;-58
2021/12/28 00:28:48;0.00;0.00;0.62;0.00;0.00;0.62;1.87;1.20;;;19.80;26.50;;;;;;2266288;61;20431;-59
2021/12/28 00:31:32;0.00;0.00;0.62;0.00;0.00;0.62;1.80;1.10;;;19.80;26.50;;;;;;2265964;61;20360;-56
2021/12/28 00:34:17;0.00;0.00;0.62;0.00;0.00;0.62;1.40;1.13;;;19.80;27.00;;;;;;2265580;61;20365;-58
2021/12/28 00:37:02;0.00;0.00;0.62;0.00;0.00;0.62;1.70;1.07;;;19.80;26.50;;;;;;2266295;61;20419;-59
2021/12/28 00:39:46;0.00;0.00;0.62;0.00;0.00;0.62;1.53;1.00;;;19.80;26.50;;;;;;2266286;61;20376;-58
2021/12/28 00:42:31;0.00;0.00;0.62;0.00;0.00;0.62;1.73;1.10;;;19.80;26.50;;;;;;2265416;61;20380;-55
2021/12/28 00:45:17;0.00;0.00;0.62;0.00;0.00;0.62;1.70;1.20;;;19.90;26.50;;;;;;2265861;61;20364;-58
2021/12/28 00:48:02;0.00;0.00;0.62;0.00;0.00;0.62;2.50;1.03;;;19.80;26.50;;;;;;2266137;61;20492;-59
2021/12/28 00:50:48;0.00;0.00;0.62;0.00;0.00;0.62;2.00;1.23;;;19.80;26.50;;;;;;2265981;61;20813;-59
2021/12/28 00:53:33;0.00;0.00;0.62;0.00;0.00;0.62;2.07;1.30;;;19.80;26.50;;;;;;2265869;61;20403;-57
2021/12/28 00:56:18;0.00;0.00;0.62;0.00;0.00;0.62;1.70;1.27;;;19.90;26.50;;;;;;2265454;61;20380;-59
2021/12/28 00:59:02;0.00;0.00;0.62;0.00;0.00;0.62;1.60;1.10;;;19.90;26.60;;;;;;2266375;61;20724;-58
2021/12/28 01:01:48;0.00;0.00;0.62;0.00;0.00;0.62;1.50;1.00;;;19.80;26.50;;;;;;2266190;61;20372;-56
2021/12/28 01:04:33;0.00;0.00;0.62;0.00;0.00;0.62;1.70;1.03;;;19.90;26.50;;;;;;2265545;61;20360;-58
2021/12/28 01:07:17;0.00;0.00;0.62;0.00;0.00;0.62;2.00;1.10;;;19.90;26.50;;;;;;2265803;61;20458;-59
2021/12/28 01:10:06;0.00;0.00;0.62;0.00;0.00;0.62;1.87;1.27;;;19.90;26.50;;;;;;2266036;61;20365;-56
2021/12/28 01:12:52;0.00;0.00;0.62;0.00;0.00;0.62;1.77;1.20;;;19.90;26.50;;;;;;2262686;61;20825;-59
2021/12/28 01:15:38;0.00;0.00;0.62;0.00;0.00;0.62;1.70;1.20;;;19.90;26.50;;;;;;2265827;61;20468;-58
2021/12/28 01:18:25;0.00;0.00;0.62;0.00;0.00;0.62;1.60;1.10;;;19.90;26.50;;;;;;2265435;61;20357;-59
2021/12/28 01:21:09;0.00;0.00;0.62;0.00;0.00;0.62;2.03;1.30;;;19.90;26.60;;;;;;2266239;61;20488;-58
2021/12/28 01:23:54;0.00;0.00;0.62;0.00;0.00;0.62;1.70;1.23;;;19.90;26.50;;;;;;2266024;61;20752;-59
2021/12/28 01:26:39;0.00;0.00;0.62;0.00;0.00;0.62;1.70;1.10;;;19.90;26.50;;;;;;2265299;61;20396;-57
2021/12/28 01:29:23;0.00;0.00;0.62;0.00;0.00;0.62;1.80;1.40;;;19.90;26.50;;;;;;2265824;61;20412;-58
2021/12/28 01:32:08;0.00;0.00;0.62;0.00;0.00;0.62;1.40;0.90;;;19.90;26.50;;;;;;2265933;61;20454;-60
2021/12/28 01:34:54;0.00;0.00;0.62;0.00;0.00;0.62;1.80;1.13;;;19.90;26.50;;;;;;2265593;61;20408;-60
2021/12/28 01:37:39;0.00;0.00;0.62;0.00;0.00;0.62;1.70;1.10;;;19.90;26.50;;;;;;2265905;61;20381;-58
2021/12/28 01:40:27;0.00;0.00;0.62;0.00;0.00;0.62;1.53;1.03;;;19.90;26.50;;;;;;2265709;61;20755;-58
2021/12/28 01:43:15;0.00;0.00;0.62;0.00;0.00;0.62;1.90;1.20;;;19.80;26.50;;;;;;2266137;61;20361;-58
2021/12/28 01:46:01;0.00;0.00;0.62;0.00;0.00;0.62;1.60;1.00;;;19.90;26.50;;;;;;2265874;61;20376;-60
2021/12/28 01:48:45;0.00;0.00;0.62;0.00;0.00;0.62;1.70;1.20;;;19.90;26.50;;;;;;2265473;61;20353;-59
2021/12/28 01:51:35;0.00;0.00;0.62;0.00;0.00;0.62;1.47;1.00;;;19.90;26.50;;;;;;2265885;61;20729;-60
2021/12/28 01:54:20;0.00;0.00;0.62;0.00;0.00;0.62;1.90;1.17;;;19.90;26.50;;;;;;2262618;61;20364;-60
2021/12/28 01:57:05;0.00;0.00;0.62;0.00;0.00;0.62;1.40;0.90;;;19.90;26.50;;;;;;2265763;61;20427;-61
2021/12/28 01:59:51;0.00;0.00;0.62;0.00;0.00;0.62;1.73;1.07;;;19.90;26.50;;;;;;2265770;61;20361;-59
2021/12/28 02:02:36;0.00;0.00;0.62;0.00;0.00;0.62;1.47;0.97;;;19.90;26.50;;;;;;2265458;61;20357;-60
2021/12/28 02:05:21;0.00;0.00;0.62;0.00;0.00;0.62;1.93;1.30;;;19.90;26.50;;;;;;2266193;61;20729;-60
2021/12/28 02:08:08;0.00;0.00;0.62;0.00;0.00;0.62;1.63;0.97;;;19.90;26.50;;;;;;2265522;61;20814;-58
2021/12/28 02:10:55;0.00;0.00;0.62;0.00;0.00;0.62;1.80;1.23;;;19.90;26.50;;;;;;2265419;61;20487;-56
2021/12/28 02:13:41;0.00;0.00;0.62;0.00;0.00;0.62;1.80;1.20;;;19.90;26.50;;;;;;2265911;61;20581;-58
2021/12/28 02:16:25;0.00;0.00;0.62;0.00;0.00;0.62;1.80;1.17;;;19.90;26.50;;;;;;2265594;61;20423;-58
2021/12/28 02:19:13;0.00;0.00;0.62;0.00;0.00;0.62;1.40;1.00;;;19.90;26.50;;;;;;2265717;61;20430;-59
2021/12/28 02:21:59;0.00;0.00;0.62;0.00;0.00;0.62;1.50;1.03;;;19.90;26.50;;;;;;2262420;61;20697;-60
2021/12/28 02:24:44;0.00;0.00;0.62;0.00;0.00;0.62;1.77;1.23;;;19.90;26.50;;;;;;2265330;61;20592;-57
2021/12/28 02:27:29;0.00;0.00;0.62;0.00;0.00;0.62;1.40;0.90;;;19.90;26.50;;;;;;2266152;61;20393;-56
2021/12/28 02:30:17;0.00;0.00;0.62;0.00;0.00;0.62;1.70;1.20;;;19.90;26.50;;;;;;2265521;61;20642;-61
2021/12/28 02:33:03;0.00;0.00;0.62;0.00;0.00;0.62;1.80;1.20;;;19.90;26.50;;;;;;2265248;61;20384;-53
2021/12/28 02:35:49;0.00;0.00;0.62;0.00;0.00;0.62;1.93;1.40;;;19.90;26.50;;;;;;2265712;61;20388;-60
2021/12/28 02:38:35;0.00;0.00;0.62;0.00;0.00;0.62;2.50;1.30;;;19.90;26.50;;;;;;2265941;61;20396;-58
2021/12/28 02:41:20;0.00;0.00;0.62;0.00;0.00;0.62;1.50;1.10;;;19.90;26.50;;;;;;2265519;61;20373;-61
2021/12/28 02:44:06;0.00;0.00;0.62;0.00;0.00;0.62;1.53;1.00;;;19.90;26.50;;;;;;2265449;61;20743;-59
2021/12/28 02:46:51;0.00;0.00;0.62;0.00;0.00;0.62;1.90;1.40;;;19.90;26.50;;;;;;2265531;61;20427;-58
2021/12/28 02:49:37;0.00;0.00;0.62;0.00;0.00;0.62;1.73;1.27;;;19.90;26.50;;;;;;2265913;61;20412;-58
2021/12/28 02:52:21;0.00;0.00;0.62;0.00;0.00;0.62;1.60;1.20;;;19.90;26.50;;;;;;2265573;61;20361;-57
2021/12/28 02:55:11;0.00;0.00;0.62;0.00;0.00;0.62;1.47;0.90;;;19.90;26.50;;;;;;2265187;61;20449;-57
2021/12/28 02:58:00;0.00;0.00;0.62;0.00;0.00;0.62;1.97;1.07;;;19.90;26.50;;;;;;2265619;61;20500;-60
2021/12/28 03:00:49;0.00;0.00;0.62;0.00;0.00;0.62;1.70;1.20;;;19.90;26.50;;;;;;2265869;61;20519;-57
2021/12/28 03:03:34;0.00;0.00;0.62;0.00;0.00;0.62;1.53;1.17;;;19.90;26.50;;;;;;2265379;61;20372;-58
2021/12/28 03:06:21;0.00;0.00;0.62;0.00;0.00;0.62;1.60;1.10;;;19.90;26.50;;;;;;2265289;61;20407;-59
2021/12/28 03:09:07;0.00;0.00;0.62;0.00;0.00;0.62;1.77;1.23;;;19.90;26.50;;;;;;2265622;61;20425;-60
2021/12/28 03:11:53;0.00;0.00;0.62;0.00;0.00;0.62;1.60;1.20;;;19.90;26.50;;;;;;2265831;61;20665;-56
2021/12/28 03:14:37;0.00;0.00;0.62;0.00;0.00;0.62;1.80;1.27;;;19.90;26.50;;;;;;2265425;61;20435;-58
2021/12/28 03:17:22;0.00;0.00;0.62;0.00;0.00;0.62;1.60;1.10;;;19.90;26.50;;;;;;2265084;61;20372;-56
2021/12/28 03:20:10;0.00;0.00;0.62;0.00;0.00;0.62;1.40;1.00;;;19.90;26.50;;;;;;2265807;61;20752;-54
2021/12/28 03:22:55;0.00;0.00;0.62;0.00;0.00;0.62;2.10;1.50;;;19.90;26.50;;;;;;2265636;61;20407;-58
2021/12/28 03:25:39;0.00;0.00;0.62;0.00;0.00;0.62;1.70;1.10;;;19.90;26.50;;;;;;2265200;61;20792;-60
2021/12/28 03:28:29;0.00;0.00;0.62;0.00;0.00;0.62;1.80;1.20;;;19.90;26.50;;;;;;2265389;61;20731;-58
2021/12/28 03:31:17;0.00;0.00;0.62;0.00;0.00;0.62;1.60;1.13;;;19.90;26.50;;;;;;2265486;61;20452;-60
2021/12/28 03:34:02;0.00;0.00;0.62;0.00;0.00;0.62;1.63;1.10;;;19.90;26.60;;;;;;2265925;61;20604;-56
2021/12/28 03:36:47;0.00;0.00;0.62;0.00;0.00;0.62;2.10;1.60;;;19.90;26.50;;;;;;2265091;61;20372;-58
2021/12/28 03:39:31;0.00;0.00;0.62;0.00;0.00;0.62;1.83;1.20;;;19.90;26.50;;;;;;2264965;61;20748;-56
2021/12/28 03:42:16;0.00;0.00;0.62;0.00;0.00;0.62;1.50;0.93;;;19.90;26.50;;;;;;2265633;61;20373;-58
2021/12/28 03:45:02;0.00;0.00;0.62;0.00;0.00;0.62;1.27;0.80;;;19.90;26.50;;;;;;2265737;61;20361;-58
2021/12/28 03:47:47;0.00;0.00;0.62;0.00;0.00;0.62;1.60;1.00;;;19.90;26.50;;;;;;2265304;61;20392;-56
2021/12/28 03:50:33;0.00;0.00;0.62;0.00;0.00;0.62;1.60;1.10;;;19.90;26.50;;;;;;2265405;61;20357;-61
2021/12/28 03:53:17;0.00;0.00;0.62;0.00;0.00;0.62;1.60;1.10;;;19.90;26.50;;;;;;2265454;61;20789;-57
2021/12/28 03:56:07;0.00;0.00;0.62;0.00;0.00;0.62;1.57;0.93;;;19.90;26.50;;;;;;2265681;61;20356;-60
2021/12/28 03:58:52;0.00;0.00;0.62;0.00;0.00;0.62;1.37;0.87;;;19.90;26.50;;;;;;2265400;61;20372;-58
2021/12/28 04:01:38;0.00;0.00;0.62;0.00;0.00;0.62;1.40;0.97;;;19.90;26.50;;;;;;2265074;61;20361;-56
2021/12/28 04:04:24;0.00;0.00;0.62;0.00;0.00;0.62;1.40;0.90;;;19.90;26.50;;;;;;2265574;61;20384;-60
2021/12/28 04:07:12;0.00;0.00;0.62;0.00;0.00;0.62;1.40;0.80;;;19.90;26.50;;;;;;2265616;61;20420;-60
2021/12/28 04:10:00;0.00;0.00;0.62;0.00;0.00;0.62;1.50;1.03;;;19.90;26.50;;;;;;2265324;61;20625;-57
2021/12/28 04:12:45;0.00;0.00;0.62;0.00;0.00;0.62;1.40;0.90;;;19.90;26.50;;;;;;2265234;61;20575;-58
2021/12/28 04:15:30;0.00;0.00;0.62;0.00;0.00;0.62;1.40;0.80;;;19.90;26.50;;;;;;2265307;61;20360;-60
2021/12/28 04:18:17;0.00;0.00;0.62;0.00;0.00;0.62;1.43;1.00;;;19.90;26.50;;;;;;2265841;61;20372;-57
2021/12/28 04:21:01;0.00;0.00;0.62;0.00;0.00;0.62;1.73;0.97;;;19.90;26.50;;;;;;2265344;61;20463;-56
2021/12/28 04:23:47;0.00;0.00;0.62;0.00;0.00;0.62;1.60;0.97;;;19.90;26.50;;;;;;2265042;61;20571;-59
2021/12/28 04:26:33;0.00;0.00;0.62;0.00;0.00;0.62;1.70;1.10;;;19.90;26.60;;;;;;2265342;61;20385;-59
2021/12/28 04:29:18;0.00;0.00;0.62;0.00;0.00;0.62;1.53;1.00;;;19.90;26.50;;;;;;2265474;61;20356;-57
2021/12/28 04:32:03;0.00;0.00;0.62;0.00;0.00;0.62;1.50;1.00;;;19.90;26.50;;;;;;2265270;61;20422;-57
2021/12/28 04:34:49;0.00;0.00;0.62;0.00;0.00;0.62;1.50;1.00;;;19.90;26.50;;;;;;2265166;61;20365;-57
2021/12/28 04:37:34;0.00;0.00;0.62;0.00;0.00;0.62;1.50;1.13;;;19.90;26.50;;;;;;2265353;61;20377;-60
2021/12/28 04:40:19;0.00;0.00;0.62;0.00;0.00;0.62;1.50;0.90;;;19.90;26.50;;;;;;2265404;61;20582;-56
2021/12/28 04:43:04;0.00;0.00;0.62;0.00;0.00;0.62;1.80;1.40;;;19.90;26.50;;;;;;2265155;61;20584;-54
2021/12/28 04:45:48;0.00;0.00;0.62;0.00;0.00;0.62;1.50;1.10;;;19.90;26.50;;;;;;2264941;61;20396;-52
2021/12/28 04:48:33;0.00;0.00;0.62;0.00;0.00;0.62;1.40;0.77;;;19.90;26.50;;;;;;2266345;61;20337;-57
2021/12/28 04:51:20;0.00;0.00;0.62;0.00;0.00;0.62;1.30;0.87;;;19.90;26.50;;;;;;2266223;61;20725;-55
2021/12/28 04:54:10;0.00;0.00;0.62;0.00;0.00;0.62;1.40;1.00;;;19.90;26.50;;;;;;2265611;61;20435;-60
2021/12/28 04:56:55;0.00;0.00;0.62;0.00;0.00;0.62;1.50;0.90;;;19.90;26.50;;;;;;2265737;61;20420;-59
2021/12/28 04:59:40;0.00;0.00;0.62;0.00;0.00;0.62;1.60;1.20;;;19.90;26.50;;;;;;2266096;61;20364;-55
2021/12/28 05:02:24;0.00;0.00;0.62;0.00;0.00;0.62;1.60;1.07;;;19.90;26.50;;;;;;2265867;61;20357;-58
2021/12/28 05:05:10;0.00;0.00;0.62;0.00;0.00;0.62;1.50;1.10;;;19.90;26.50;;;;;;2265639;61;20725;-57
2021/12/28 05:07:56;0.00;0.00;0.62;0.00;0.00;0.62;1.30;0.90;;;19.90;26.50;;;;;;2265556;61;20768;-63
2021/12/28 05:10:41;0.00;0.00;0.62;0.00;0.00;0.62;2.00;1.33;;;19.90;26.50;;;;;;2266305;61;20364;-59
2021/12/28 05:13:26;0.00;0.00;0.62;0.00;0.00;0.62;3.07;2.20;;;19.90;26.50;;;;;;2265986;61;20361;-59
2021/12/28 05:16:14;0.00;0.00;0.62;0.00;0.00;0.62;2.77;2.10;;;19.90;26.50;;;;;;2265423;61;20429;-59
2021/12/28 05:19:00;0.00;0.00;0.62;0.00;0.00;0.62;3.07;2.50;;;19.90;26.50;;;;;;2266765;61;20582;-55
2021/12/28 05:21:44;0.00;0.00;0.62;0.00;0.00;0.62;2.10;1.70;;;19.90;26.50;;;;;;2265918;61;20484;-59
2021/12/28 05:24:30;0.00;0.00;0.62;0.00;0.00;0.62;2.50;2.20;;;19.80;26.50;;;;;;2265831;61;20404;-60
2021/12/28 05:27:15;0.00;0.00;0.62;0.00;0.00;0.62;2.63;2.10;;;19.80;26.50;;;;;;2265755;61;20404;-59
2021/12/28 05:30:00;0.00;0.00;0.62;0.00;0.00;0.62;3.60;2.43;;;19.80;26.50;;;;;;2265443;61;20380;-61
2021/12/28 05:32:44;0.00;0.00;0.62;0.00;0.00;0.62;2.43;2.00;;;19.80;26.50;;;;;;2266158;61;20360;-60
2021/12/28 05:35:29;0.00;0.00;0.62;0.00;0.00;0.62;3.20;2.90;;;19.80;26.50;;;;;;2265926;61;20391;-62
2021/12/28 05:38:13;0.00;0.00;0.62;0.00;0.00;0.62;2.70;2.30;;;19.70;26.40;;;;;;2265489;61;20585;-58
2021/12/28 05:40:59;0.00;0.00;0.62;0.00;0.00;0.62;2.57;2.10;;;19.70;26.40;;;;;;2265697;61;20365;-60
2021/12/28 05:43:44;0.00;0.00;0.62;0.00;0.00;0.62;2.57;2.10;;;19.70;26.40;;;;;;2265786;61;20733;-58
2021/12/28 05:46:28;0.00;0.00;0.62;0.00;0.00;0.62;3.30;2.40;;;19.70;26.40;;;;;;2265557;61;20400;-58
2021/12/28 05:49:13;0.00;0.00;0.62;0.00;0.00;0.62;3.30;2.70;;;19.70;26.40;;;;;;2265756;61;20412;-60
2021/12/28 05:51:58;0.00;0.00;0.62;0.00;0.00;0.62;3.27;2.97;;;19.70;26.40;;;;;;2265573;61;20820;-60
2021/12/28 05:54:42;0.00;0.00;0.62;0.00;0.00;0.62;2.80;2.50;;;19.70;26.40;;;;;;2265972;61;20724;-60
2021/12/28 05:57:30;0.00;0.00;0.62;0.00;0.00;0.62;3.10;2.73;;;19.60;26.30;;;;;;2265755;61;20461;-59
2021/12/28 06:00:16;0.00;0.00;0.62;0.00;0.00;0.62;2.50;2.03;;;19.60;26.30;;;;;;2265272;61;20361;-60
2021/12/28 06:03:01;0.00;0.00;0.62;0.00;0.00;0.62;2.90;2.70;;;19.60;26.30;;;;;;2265813;61;20372;-59
2021/12/28 06:05:46;0.00;0.00;0.62;0.00;0.00;0.62;2.50;2.17;;;19.60;26.30;;;;;;2265399;61;20403;-59
2021/12/28 06:08:30;0.00;0.00;0.62;0.00;0.00;0.62;2.17;1.90;;;19.60;26.30;;;;;;2265689;61;20361;-58
2021/12/28 06:11:16;0.00;0.00;0.62;0.00;0.00;0.62;2.97;2.10;;;19.60;26.30;;;;;;2265780;61;20376;-60
2021/12/28 06:14:02;0.00;0.00;0.62;0.00;0.00;0.62;3.60;2.17;;;19.60;26.30;;;;;;2265294;61;20387;-58
2021/12/28 06:16:47;0.00;0.00;0.62;0.00;0.00;0.62;3.50;1.87;;;19.60;26.30;;;;;;2265917;61;20381;-59
2021/12/28 06:19:32;0.00;0.00;0.62;0.00;0.00;0.62;1.97;1.67;;;19.60;26.30;;;;;;2265753;61;20357;-59
2021/12/28 06:22:16;0.00;0.00;0.62;0.00;0.00;0.62;2.20;1.70;;;19.60;26.30;;;;;;2265202;61;20360;-58
2021/12/28 06:25:03;0.00;0.00;0.62;0.00;0.00;0.62;3.97;1.60;;;19.60;26.80;;;;;;2265763;61;20365;-55
2021/12/28 06:27:47;0.00;0.00;0.62;0.00;0.00;0.62;2.30;1.60;;;19.60;26.30;;;;;;2266146;61;20602;-57
2021/12/28 06:30:34;0.00;0.00;0.62;0.00;0.00;0.62;2.23;1.60;;;19.70;26.40;;;;;;2265684;61;20356;-59
2021/12/28 06:33:20;0.00;0.00;0.62;0.00;0.00;0.62;2.43;1.57;;;19.60;26.30;;;;;;2265650;61;20353;-55
2021/12/28 06:36:05;0.00;0.00;0.62;0.00;0.00;0.62;2.10;1.77;;;19.70;26.40;;;;;;2265552;61;20404;-56
2021/12/28 06:38:51;0.00;0.00;0.62;0.00;0.00;0.62;2.30;1.57;;;19.70;26.40;;;;;;2265946;61;20399;-58
2021/12/28 06:41:35;0.00;0.00;0.62;0.00;0.00;0.62;1.90;1.70;;;19.70;26.40;;;;;;2265604;61;20376;-57
2021/12/28 06:44:20;0.00;0.00;0.62;0.00;0.00;0.62;2.60;1.70;;;19.70;26.40;;;;;;2265298;61;20612;-60
2021/12/28 06:47:06;0.00;0.00;0.62;0.00;0.00;0.62;1.60;1.20;;;19.70;26.40;;;;;;2266003;61;20428;-57
2021/12/28 06:49:50;0.00;0.00;0.62;0.00;0.00;0.62;2.07;1.60;;;19.70;26.40;;;;;;2265791;61;20435;-59
2021/12/28 06:52:35;0.00;0.00;0.62;0.00;0.00;0.62;1.70;1.30;;;19.70;26.40;;;;;;2265545;61;20766;-58
2021/12/28 06:55:20;0.00;0.00;0.62;0.00;0.00;0.62;1.83;1.30;;;19.70;26.40;;;;;;2265450;61;20412;-58
2021/12/28 06:58:05;0.00;0.00;0.62;0.00;0.00;0.62;1.60;1.10;;;19.70;26.40;;;;;;2265587;61;20377;-57
2021/12/28 07:00:49;0.00;0.00;0.62;0.00;0.00;0.62;1.93;1.70;;;19.70;26.40;;;;;;2265649;61;20357;-55
2021/12/28 07:03:36;0.00;0.00;0.62;0.00;0.00;0.62;1.67;1.10;;;19.70;26.40;;;;;;2265339;61;20404;-58
2021/12/28 07:06:23;0.00;0.00;0.62;0.00;0.00;0.62;1.80;1.10;;;19.70;26.40;;;;;;2265038;61;20388;-54
2021/12/28 07:09:08;0.00;0.00;0.62;0.00;0.00;0.62;2.00;1.30;;;19.70;26.40;;;;;;2266000;61;20767;-58
2021/12/28 07:11:52;0.00;0.00;0.62;0.00;0.00;0.62;1.70;1.43;;;19.70;26.40;;;;;;2265640;61;20400;-56
2021/12/28 07:14:38;0.00;0.00;0.62;0.00;0.00;0.62;1.97;1.20;;;19.70;26.40;;;;;;2265234;61;20364;-57
2021/12/28 07:17:22;0.00;0.00;0.62;0.00;0.00;0.62;1.93;1.30;;;19.70;26.40;;;;;;2265331;61;20746;-57
2021/12/28 07:20:10;0.00;0.00;0.62;0.00;0.00;0.62;2.00;1.23;;;19.70;26.40;;;;;;2265595;61;20360;-57
2021/12/28 07:22:55;0.00;0.00;0.62;0.00;0.00;0.62;1.80;1.20;;;19.70;26.40;;;;;;2265471;61;20611;-57
2021/12/28 07:25:39;0.00;0.00;0.62;0.00;0.00;0.62;1.90;1.17;;;19.70;26.40;;;;;;2265366;61;20493;-60
2021/12/28 07:28:25;0.00;0.00;0.62;0.00;0.00;0.62;1.53;1.10;;;19.70;26.40;;;;;;2265035;61;20460;-61
2021/12/28 07:31:10;0.00;0.00;0.62;0.00;0.00;0.62;2.33;1.00;;;19.70;26.40;;;;;;2265869;61;20405;-56
2021/12/28 07:33:55;0.00;0.00;0.62;0.00;0.00;0.62;1.53;1.10;;;19.70;26.40;;;;;;2265509;61;20365;-58
2021/12/28 07:36:41;0.00;0.00;0.62;0.00;0.00;0.62;1.33;0.87;;;19.70;26.40;;;;;;2265111;61;20376;-54
2021/12/28 07:39:26;0.00;0.00;0.62;0.00;0.00;0.62;1.40;1.10;;;19.70;26.40;;;;;;2265237;61;20435;-58
2021/12/28 07:42:10;0.00;0.00;0.62;0.00;0.00;0.62;2.00;1.00;;;19.70;26.40;;;;;;2265367;61;20392;-60
2021/12/28 07:44:55;0.00;0.00;0.62;0.00;0.00;0.62;1.33;0.97;;;19.70;26.40;;;;;;2265246;61;20357;-59
2021/12/28 07:47:40;0.00;0.00;0.62;0.00;0.00;0.62;1.63;1.13;;;19.70;26.40;;;;;;2265269;61;20385;-57
2021/12/28 07:50:25;0.00;0.00;0.62;0.00;0.00;0.62;1.40;1.10;;;19.70;26.40;;;;;;2265228;61;20412;-57
2021/12/28 07:53:11;0.00;0.00;0.62;0.00;0.00;0.62;1.67;1.10;;;19.70;26.40;;;;;;2265709;61;20357;-58
2021/12/28 07:55:57;0.00;0.00;0.62;0.00;0.00;0.62;1.83;1.07;;;19.70;26.40;;;;;;2265130;61;20617;-58
2021/12/28 07:58:42;0.00;0.00;0.62;0.00;0.00;0.62;1.50;1.20;;;19.70;26.40;;;;;;2265077;61;20693;-58
2021/12/28 08:01:26;0.00;0.00;0.62;0.00;0.00;0.62;1.40;0.90;;;19.70;26.40;;;;;;2265681;61;20357;-58
2021/12/28 08:04:11;0.00;0.00;0.62;0.00;0.00;0.62;1.60;1.20;;;19.70;26.40;;;;;;2265539;61;20377;-59
2021/12/28 08:06:56;0.00;0.00;0.62;0.00;0.00;0.62;2.23;1.20;;;19.70;26.40;;;;;;2265096;61;20416;-59
2021/12/28 08:09:42;0.00;0.00;0.62;0.00;0.00;0.62;1.50;1.00;;;19.80;26.50;;;;;;2265316;61;20360;-58
2021/12/28 08:12:27;0.00;0.00;0.62;0.00;0.00;0.62;1.50;1.10;;;19.70;26.40;;;;;;2265462;61;20825;-56
2021/12/28 08:15:12;0.00;0.00;0.62;0.00;0.00;0.62;1.70;1.10;;;19.70;26.40;;;;;;2265619;61;20388;-55
2021/12/28 08:17:57;0.00;0.00;0.62;0.00;0.00;0.62;1.83;1.30;;;19.70;26.40;;;;;;2265330;61;20412;-56
2021/12/28 08:20:41;0.00;0.00;0.62;0.00;0.00;0.62;2.20;1.17;;;19.80;26.50;;;;;;2264910;61;20388;-59
2021/12/28 08:23:26;0.00;0.00;0.62;0.00;0.00;0.62;1.40;0.87;;;19.80;26.50;;;;;;2266127;61;20361;-57
2021/12/28 08:26:12;0.00;0.00;0.62;0.00;0.00;0.62;2.20;1.30;;;19.80;26.50;;;;;;2266445;61;20388;-59
2021/12/28 08:28:56;0.00;0.00;0.62;0.00;0.00;0.62;1.50;1.30;;;19.80;26.50;;;;;;2265776;61;20357;-59
2021/12/28 08:31:41;0.00;0.00;0.62;0.00;0.00;0.62;1.60;1.17;;;19.80;26.50;;;;;;2265989;61;20403;-58
2021/12/28 08:34:25;0.00;0.00;0.62;0.00;0.00;0.62;1.70;1.30;;;19.80;26.50;;;;;;2266024;61;20361;-58
2021/12/28 08:37:12;0.00;0.00;0.62;0.00;0.00;0.62;1.83;1.27;;;19.80;26.50;;;;;;2266062;61;20368;-59
2021/12/28 08:39:56;0.00;0.00;0.62;0.00;0.00;0.62;1.80;1.10;;;19.80;26.50;;;;;;2265667;61;20435;-58
2021/12/28 08:42:42;0.00;0.00;0.62;0.00;0.00;0.62;1.60;1.10;;;19.80;26.50;;;;;;2264983;61;20406;-54
2021/12/28 08:45:27;0.00;0.00;0.62;0.00;0.00;0.62;1.80;1.10;;;19.80;26.50;;;;;;2266359;61;20443;-57
2021/12/28 08:48:12;0.00;0.00;0.62;0.00;0.00;0.62;2.07;1.33;;;19.80;26.50;;;;;;2266144;61;20507;-57
2021/12/28 08:50:56;0.00;0.00;0.62;0.00;0.00;0.62;1.80;1.00;;;19.80;26.50;;;;;;2265797;61;20361;-57
2021/12/28 08:53:41;0.00;0.00;0.62;0.00;0.00;0.62;1.90;1.20;;;19.80;26.50;;;;;;2265902;61;20396;-57
2021/12/28 08:56:26;0.00;0.00;0.62;0.00;0.00;0.62;1.60;1.00;;;19.80;26.50;;;;;;2265659;61;20471;-58
2021/12/28 08:59:13;0.00;0.00;0.62;0.00;0.00;0.62;4.10;1.00;;;19.80;26.50;;;;;;2266045;61;20361;-60
2021/12/28 09:01:57;0.00;0.00;0.62;0.00;0.00;0.62;2.47;1.00;;;19.80;26.50;;;;;;2265933;61;20464;-57
2021/12/28 09:04:43;0.00;0.00;0.62;0.00;0.00;0.62;2.00;1.50;;;19.80;26.50;;;;;;2265162;61;20610;-57
2021/12/28 09:07:28;0.00;0.00;0.62;0.00;0.00;0.62;1.60;1.23;;;19.80;26.50;;;;;;2266363;61;20811;-55
2021/12/28 09:10:12;0.00;0.00;0.62;0.00;0.00;0.62;1.77;1.07;;;19.80;26.50;;;;;;2266061;61;20451;-58
2021/12/28 09:12:57;0.00;0.00;0.62;0.00;0.00;0.62;1.40;1.10;;;19.80;26.50;;;;;;2265488;61;20361;-56
2021/12/28 09:15:43;0.00;0.00;0.62;0.00;0.00;0.62;1.90;1.67;;;19.80;26.50;;;;;;2265770;61;20404;-59
2021/12/28 09:18:28;0.00;0.00;0.62;0.00;0.00;0.62;2.43;1.20;;;19.80;26.50;;;;;;2266012;61;20486;-60
2021/12/28 09:21:12;0.00;0.00;0.62;0.00;0.00;0.62;2.20;1.33;;;19.80;26.50;;;;;;2265934;61;20674;-56
2021/12/28 09:23:57;0.00;0.00;0.62;0.00;0.00;0.62;1.30;1.00;;;19.80;26.50;;;;;;2265750;61;20360;-57
2021/12/28 09:26:42;0.00;0.00;0.62;0.00;0.00;0.62;1.60;1.00;;;19.80;26.50;;;;;;2265309;61;20392;-60
2021/12/28 09:29:31;0.00;0.00;0.62;0.00;0.00;0.62;1.57;0.90;;;19.90;26.50;;;;;;2266244;61;20579;-58
2021/12/28 09:32:18;0.00;0.00;0.62;0.00;0.00;0.62;1.87;1.23;;;19.90;26.50;;;;;;2265662;61;20360;-57
2021/12/28 09:35:04;0.00;0.00;0.62;0.00;0.00;0.62;1.40;1.10;;;19.90;26.50;;;;;;2265283;61;20369;-56
2021/12/28 09:37:49;0.00;0.00;0.62;0.00;0.00;0.62;2.10;1.37;;;19.90;26.50;;;;;;2265742;61;20453;-57
2021/12/28 09:40:35;0.00;0.00;0.62;0.00;0.00;0.62;1.53;1.10;;;19.90;26.50;;;;;;2265982;61;20376;-57
2021/12/28 09:43:21;0.00;0.00;0.62;0.00;0.00;0.62;2.27;1.20;;;19.80;26.50;;;;;;2265745;61;20396;-60
2021/12/28 09:46:07;0.00;0.00;0.62;0.00;0.00;0.62;2.00;1.13;;;19.90;26.50;;;;;;2265577;61;20453;-55
2021/12/28 09:48:53;0.00;0.00;0.62;0.00;0.00;0.62;1.40;1.10;;;19.90;26.50;;;;;;2265490;61;20714;-58
2021/12/28 09:51:37;0.00;0.00;0.62;0.00;0.00;0.62;1.80;1.30;;;19.90;26.50;;;;;;2266139;61;20365;-57
2021/12/28 09:54:24;0.00;0.00;0.62;0.00;0.00;0.62;2.60;1.63;;;19.90;26.50;;;;;;2265761;61;20361;-56
2021/12/28 09:57:12;0.00;0.00;0.62;0.00;0.00;0.62;1.80;1.20;;;20.00;26.60;;;;;;2265472;61;20373;-57
2021/12/28 09:59:57;0.00;0.00;0.62;0.00;0.00;0.62;1.70;1.20;;;20.00;26.60;;;;;;2265760;61;20428;-56
2021/12/28 10:02:41;0.00;0.00;0.62;0.00;0.00;0.62;1.40;1.00;;;20.00;27.20;;;;;;2265862;61;20611;-60
2021/12/28 10:05:29;0.00;0.00;0.62;0.00;0.00;0.62;2.00;1.20;;;20.00;26.60;;;;;;2265499;61;20368;-58
2021/12/28 10:08:14;0.00;0.00;0.62;0.00;0.00;0.62;1.50;1.00;;;20.00;26.60;;;;;;2265514;61;20393;-57
2021/12/28 10:10:58;0.00;0.00;0.62;0.00;0.00;0.62;1.70;1.20;;;20.00;26.60;;;;;;2265709;61;20400;-55
2021/12/28 10:13:43;0.00;0.00;0.62;0.00;0.00;0.62;1.30;0.93;;;20.00;26.60;;;;;;2266064;61;20430;-58
2021/12/28 10:16:43;0.00;0.00;0.62;0.00;0.00;0.62;1.87;1.20;;;20.00;26.60;;;;;;2265640;61;20599;-59
2021/12/28 10:19:33;0.00;0.00;0.62;0.00;0.00;0.62;1.60;1.07;;;20.10;26.70;;;;;;2264919;61;20377;-55
2021/12/28 10:22:33;0.00;0.00;0.62;0.00;0.00;0.62;1.87;1.00;;;20.10;26.70;;;;;;2265639;61;20761;-55
2021/12/28 10:25:21;0.00;0.00;0.62;0.00;0.00;0.62;1.53;0.93;;;20.10;26.70;;;;;;2265704;61;20364;-56
2021/12/28 10:28:10;0.00;0.00;0.62;0.00;0.00;0.62;1.60;0.90;;;20.10;26.70;;;;;;2265411;61;20416;-55
2021/12/28 10:30:59;0.00;0.00;0.62;0.00;0.00;0.62;1.60;1.00;;;20.10;26.70;;;;;;2265678;61;20361;-60
2021/12/28 10:33:44;0.00;0.00;0.62;0.00;0.00;0.62;2.17;1.30;;;20.10;27.20;;;;;;2265113;61;20353;-58
2021/12/28 10:36:33;0.00;0.00;0.62;0.00;0.00;0.62;1.70;1.10;;;20.10;26.70;;;;;;2265810;61;20608;-58
2021/12/28 10:39:20;0.00;0.00;0.62;0.00;0.00;0.62;1.70;1.00;;;20.10;26.70;;;;;;2265993;61;20361;-60
2021/12/28 10:42:05;0.00;0.00;0.62;0.00;0.00;0.62;2.23;1.00;;;20.10;26.70;;;;;;2265396;61;20600;-57
2021/12/28 10:44:57;0.00;0.00;0.62;0.00;0.00;0.62;1.67;0.97;;;20.10;26.70;;;;;;2265591;61;20394;-57
2021/12/28 10:47:42;0.00;0.00;0.62;0.00;0.00;0.62;2.87;1.20;;;20.10;26.70;;;;;;2265561;61;20428;-57
2021/12/28 10:50:36;0.00;0.00;0.62;0.00;0.00;0.62;2.43;1.10;;;20.10;26.70;;;;;;2266121;61;20361;-58
2021/12/28 10:53:24;0.00;0.00;0.62;0.00;0.00;0.62;1.70;1.30;;;20.10;26.70;;;;;;2265629;61;20361;-57
2021/12/28 10:56:11;0.00;0.00;0.62;0.00;0.00;0.62;2.30;1.20;;;20.20;26.70;;;;;;2264997;61;20369;-59